sensor_id;sensor_type;location;lat;lon;timestamp;temperature;humidity
55634;DHT22;41504;53.162;6.788;2023-04-03T00:00:23;4.40;67.90
55634;DHT22;41504;53.162;6.788;2023-04-03T00:02:49;4.40;67.60
55634;DHT22;41504;53.162;6.788;2023-04-03T00:05:14;4.40;67.40
55634;DHT22;41504;53.162;6.788;2023-04-03T00:07:40;4.30;67.30
55634;DHT22;41504;53.162;6.788;2023-04-03T00:10:07;4.20;67.30
55634;DHT22;41504;53.162;6.788;2023-04-03T00:12:32;4.20;67.70
55634;DHT22;41504;53.162;6.788;2023-04-03T00:14:58;4.20;67.60
55634;DHT22;41504;53.162;6.788;2023-04-03T00:17:24;4.20;67.70
55634;DHT22;41504;53.162;6.788;2023-04-03T00:19:50;4.20;67.80
55634;DHT22;41504;53.162;6.788;2023-04-03T00:22:16;4.10;67.60
55634;DHT22;41504;53.162;6.788;2023-04-03T00:24:41;4.10;67.80
55634;DHT22;41504;53.162;6.788;2023-04-03T00:27:07;4.10;68.50
55634;DHT22;41504;53.162;6.788;2023-04-03T00:29:33;4.10;68.00
55634;DHT22;41504;53.162;6.788;2023-04-03T00:31:58;4.10;68.50
55634;DHT22;41504;53.162;6.788;2023-04-03T00:34:24;4.10;68.20
55634;DHT22;41504;53.162;6.788;2023-04-03T00:36:50;4.00;68.40
55634;DHT22;41504;53.162;6.788;2023-04-03T00:39:16;4.00;68.60
55634;DHT22;41504;53.162;6.788;2023-04-03T00:41:42;4.00;68.70
55634;DHT22;41504;53.162;6.788;2023-04-03T00:47:10;3.90;68.80
55634;DHT22;41504;53.162;6.788;2023-04-03T00:49:38;3.90;69.10
55634;DHT22;41504;53.162;6.788;2023-04-03T00:52:07;3.90;69.10
55634;DHT22;41504;53.162;6.788;2023-04-03T00:54:36;3.90;69.30
55634;DHT22;41504;53.162;6.788;2023-04-03T00:57:03;3.90;69.40
55634;DHT22;41504;53.162;6.788;2023-04-03T00:59:32;3.80;69.60
55634;DHT22;41504;53.162;6.788;2023-04-03T01:02:00;3.80;69.80
55634;DHT22;41504;53.162;6.788;2023-04-03T01:07:15;3.80;70.80
55634;DHT22;41504;53.162;6.788;2023-04-03T01:09:42;3.80;70.40
55634;DHT22;41504;53.162;6.788;2023-04-03T01:12:17;3.70;70.60
55634;DHT22;41504;53.162;6.788;2023-04-03T01:14:48;3.70;70.50
55634;DHT22;41504;53.162;6.788;2023-04-03T01:20:31;3.70;71.00
55634;DHT22;41504;53.162;6.788;2023-04-03T01:28:09;3.50;71.40
55634;DHT22;41504;53.162;6.788;2023-04-03T01:33:10;3.50;71.50
55634;DHT22;41504;53.162;6.788;2023-04-03T01:35:36;3.50;71.70
55634;DHT22;41504;53.162;6.788;2023-04-03T01:38:02;3.50;71.90
55634;DHT22;41504;53.162;6.788;2023-04-03T01:40:28;3.50;72.00
55634;DHT22;41504;53.162;6.788;2023-04-03T01:42:54;3.50;72.20
55634;DHT22;41504;53.162;6.788;2023-04-03T01:45:19;3.50;72.30
55634;DHT22;41504;53.162;6.788;2023-04-03T01:47:45;3.50;72.40
55634;DHT22;41504;53.162;6.788;2023-04-03T01:50:11;3.40;72.70
55634;DHT22;41504;53.162;6.788;2023-04-03T01:52:37;3.40;72.80
55634;DHT22;41504;53.162;6.788;2023-04-03T01:55:03;3.30;72.90
55634;DHT22;41504;53.162;6.788;2023-04-03T01:57:29;3.30;73.10
55634;DHT22;41504;53.162;6.788;2023-04-03T01:59:54;3.30;73.20
55634;DHT22;41504;53.162;6.788;2023-04-03T02:02:20;3.30;73.20
55634;DHT22;41504;53.162;6.788;2023-04-03T02:04:46;3.30;73.20
55634;DHT22;41504;53.162;6.788;2023-04-03T02:07:11;3.30;73.50
55634;DHT22;41504;53.162;6.788;2023-04-03T02:09:37;3.30;73.60
55634;DHT22;41504;53.162;6.788;2023-04-03T02:12:03;3.20;73.80
55634;DHT22;41504;53.162;6.788;2023-04-03T02:14:28;3.10;73.90
55634;DHT22;41504;53.162;6.788;2023-04-03T02:16:54;3.20;74.10
55634;DHT22;41504;53.162;6.788;2023-04-03T02:19:20;3.10;74.30
55634;DHT22;41504;53.162;6.788;2023-04-03T02:21:46;3.10;74.50
55634;DHT22;41504;53.162;6.788;2023-04-03T02:24:12;3.00;74.70
55634;DHT22;41504;53.162;6.788;2023-04-03T02:26:37;3.00;74.70
55634;DHT22;41504;53.162;6.788;2023-04-03T02:29:03;3.00;74.80
55634;DHT22;41504;53.162;6.788;2023-04-03T02:31:29;3.00;74.90
55634;DHT22;41504;53.162;6.788;2023-04-03T02:33:54;3.00;75.10
55634;DHT22;41504;53.162;6.788;2023-04-03T02:36:20;2.90;75.30
55634;DHT22;41504;53.162;6.788;2023-04-03T02:38:46;3.10;75.60
55634;DHT22;41504;53.162;6.788;2023-04-03T02:41:12;2.90;75.70
55634;DHT22;41504;53.162;6.788;2023-04-03T02:43:38;3.00;75.70
55634;DHT22;41504;53.162;6.788;2023-04-03T02:46:05;2.80;76.40
55634;DHT22;41504;53.162;6.788;2023-04-03T02:48:31;2.80;76.00
55634;DHT22;41504;53.162;6.788;2023-04-03T02:50:57;2.80;76.30
55634;DHT22;41504;53.162;6.788;2023-04-03T02:53:23;2.80;76.30
55634;DHT22;41504;53.162;6.788;2023-04-03T02:55:48;2.80;76.40
55634;DHT22;41504;53.162;6.788;2023-04-03T02:58:14;2.70;76.40
55634;DHT22;41504;53.162;6.788;2023-04-03T03:00:40;2.60;76.80
55634;DHT22;41504;53.162;6.788;2023-04-03T03:03:06;2.60;76.90
55634;DHT22;41504;53.162;6.788;2023-04-03T03:05:32;2.60;77.10
55634;DHT22;41504;53.162;6.788;2023-04-03T03:07:57;2.60;77.10
55634;DHT22;41504;53.162;6.788;2023-04-03T03:10:23;2.50;77.30
55634;DHT22;41504;53.162;6.788;2023-04-03T03:12:49;2.50;77.30
55634;DHT22;41504;53.162;6.788;2023-04-03T03:15:15;2.40;77.30
55634;DHT22;41504;53.162;6.788;2023-04-03T03:17:43;2.30;77.20
55634;DHT22;41504;53.162;6.788;2023-04-03T03:20:09;2.20;77.80
55634;DHT22;41504;53.162;6.788;2023-04-03T03:22:35;2.10;78.20
55634;DHT22;41504;53.162;6.788;2023-04-03T03:25:01;2.10;78.40
55634;DHT22;41504;53.162;6.788;2023-04-03T03:27:27;2.20;78.10
55634;DHT22;41504;53.162;6.788;2023-04-03T03:29:53;2.10;78.50
55634;DHT22;41504;53.162;6.788;2023-04-03T03:32:19;2.20;78.70
55634;DHT22;41504;53.162;6.788;2023-04-03T03:34:45;2.10;78.70
55634;DHT22;41504;53.162;6.788;2023-04-03T03:37:10;2.20;78.70
55634;DHT22;41504;53.162;6.788;2023-04-03T03:39:36;2.20;78.90
55634;DHT22;41504;53.162;6.788;2023-04-03T03:42:02;2.20;78.80
55634;DHT22;41504;53.162;6.788;2023-04-03T03:44:27;2.20;79.00
55634;DHT22;41504;53.162;6.788;2023-04-03T03:46:55;2.20;78.80
55634;DHT22;41504;53.162;6.788;2023-04-03T03:49:21;2.20;78.90
55634;DHT22;41504;53.162;6.788;2023-04-03T03:51:47;2.10;78.70
55634;DHT22;41504;53.162;6.788;2023-04-03T03:54:13;2.10;78.80
55634;DHT22;41504;53.162;6.788;2023-04-03T03:56:39;2.20;78.60
55634;DHT22;41504;53.162;6.788;2023-04-03T03:59:05;2.20;78.80
55634;DHT22;41504;53.162;6.788;2023-04-03T04:01:32;2.10;79.00
55634;DHT22;41504;53.162;6.788;2023-04-03T04:03:57;2.10;78.90
55634;DHT22;41504;53.162;6.788;2023-04-03T04:06:23;2.10;79.10
55634;DHT22;41504;53.162;6.788;2023-04-03T04:08:49;2.10;79.10
55634;DHT22;41504;53.162;6.788;2023-04-03T04:11:15;2.00;79.00
55634;DHT22;41504;53.162;6.788;2023-04-03T04:13:41;2.00;79.10
55634;DHT22;41504;53.162;6.788;2023-04-03T04:16:07;2.00;79.20
55634;DHT22;41504;53.162;6.788;2023-04-03T04:18:33;2.00;79.80
55634;DHT22;41504;53.162;6.788;2023-04-03T04:20:59;2.00;79.30
55634;DHT22;41504;53.162;6.788;2023-04-03T04:23:25;2.00;79.50
55634;DHT22;41504;53.162;6.788;2023-04-03T04:25:51;2.10;79.40
55634;DHT22;41504;53.162;6.788;2023-04-03T04:28:17;1.90;79.40
55634;DHT22;41504;53.162;6.788;2023-04-03T04:30:42;1.90;79.70
55634;DHT22;41504;53.162;6.788;2023-04-03T04:33:08;1.80;79.50
55634;DHT22;41504;53.162;6.788;2023-04-03T04:35:34;1.90;79.70
55634;DHT22;41504;53.162;6.788;2023-04-03T04:38:00;1.80;79.70
55634;DHT22;41504;53.162;6.788;2023-04-03T04:40:26;1.80;79.80
55634;DHT22;41504;53.162;6.788;2023-04-03T04:42:52;1.80;80.00
55634;DHT22;41504;53.162;6.788;2023-04-03T04:45:18;1.70;80.10
55634;DHT22;41504;53.162;6.788;2023-04-03T04:47:44;1.90;80.40
55634;DHT22;41504;53.162;6.788;2023-04-03T04:50:10;1.70;80.40
55634;DHT22;41504;53.162;6.788;2023-04-03T04:52:37;1.70;80.30
55634;DHT22;41504;53.162;6.788;2023-04-03T04:55:03;1.70;80.50
55634;DHT22;41504;53.162;6.788;2023-04-03T04:57:29;1.70;80.50
55634;DHT22;41504;53.162;6.788;2023-04-03T04:59:55;1.70;80.60
55634;DHT22;41504;53.162;6.788;2023-04-03T05:02:20;1.70;80.60
55634;DHT22;41504;53.162;6.788;2023-04-03T05:04:46;1.70;80.70
55634;DHT22;41504;53.162;6.788;2023-04-03T05:07:12;1.70;80.60
55634;DHT22;41504;53.162;6.788;2023-04-03T05:09:37;1.60;80.70
55634;DHT22;41504;53.162;6.788;2023-04-03T05:12:04;1.60;80.70
55634;DHT22;41504;53.162;6.788;2023-04-03T05:14:30;1.60;80.90
55634;DHT22;41504;53.162;6.788;2023-04-03T05:16:56;1.60;80.70
55634;DHT22;41504;53.162;6.788;2023-04-03T05:19:22;1.60;80.90
55634;DHT22;41504;53.162;6.788;2023-04-03T05:21:48;1.60;81.00
55634;DHT22;41504;53.162;6.788;2023-04-03T05:24:15;1.60;80.60
55634;DHT22;41504;53.162;6.788;2023-04-03T05:26:42;1.60;80.90
55634;DHT22;41504;53.162;6.788;2023-04-03T05:29:08;1.60;80.90
55634;DHT22;41504;53.162;6.788;2023-04-03T05:31:34;1.60;81.10
55634;DHT22;41504;53.162;6.788;2023-04-03T05:34:00;1.60;80.90
55634;DHT22;41504;53.162;6.788;2023-04-03T05:36:26;1.60;81.10
55634;DHT22;41504;53.162;6.788;2023-04-03T05:38:52;1.60;81.20
55634;DHT22;41504;53.162;6.788;2023-04-03T05:41:18;1.60;81.10
55634;DHT22;41504;53.162;6.788;2023-04-03T05:43:46;1.60;81.00
55634;DHT22;41504;53.162;6.788;2023-04-03T05:46:14;1.60;81.10
55634;DHT22;41504;53.162;6.788;2023-04-03T05:48:41;1.60;81.10
55634;DHT22;41504;53.162;6.788;2023-04-03T05:51:08;1.70;81.00
55634;DHT22;41504;53.162;6.788;2023-04-03T05:53:41;1.70;81.00
55634;DHT22;41504;53.162;6.788;2023-04-03T05:56:06;1.70;81.10
55634;DHT22;41504;53.162;6.788;2023-04-03T05:58:32;1.80;81.00
55634;DHT22;41504;53.162;6.788;2023-04-03T06:00:58;1.80;80.80
55634;DHT22;41504;53.162;6.788;2023-04-03T06:03:24;1.80;80.80
55634;DHT22;41504;53.162;6.788;2023-04-03T06:05:50;1.80;80.80
55634;DHT22;41504;53.162;6.788;2023-04-03T06:08:16;1.90;80.90
55634;DHT22;41504;53.162;6.788;2023-04-03T06:10:42;1.90;80.80
55634;DHT22;41504;53.162;6.788;2023-04-03T06:13:08;1.90;80.90
55634;DHT22;41504;53.162;6.788;2023-04-03T06:15:33;2.00;80.80
55634;DHT22;41504;53.162;6.788;2023-04-03T06:17:59;2.00;80.70
55634;DHT22;41504;53.162;6.788;2023-04-03T06:20:25;2.20;80.90
55634;DHT22;41504;53.162;6.788;2023-04-03T06:22:51;2.10;80.60
55634;DHT22;41504;53.162;6.788;2023-04-03T06:25:17;2.10;80.60
55634;DHT22;41504;53.162;6.788;2023-04-03T06:27:44;2.20;80.60
55634;DHT22;41504;53.162;6.788;2023-04-03T06:30:11;2.20;80.40
55634;DHT22;41504;53.162;6.788;2023-04-03T06:32:37;2.30;80.30
55634;DHT22;41504;53.162;6.788;2023-04-03T06:35:04;2.30;80.20
55634;DHT22;41504;53.162;6.788;2023-04-03T06:37:30;2.40;80.20
55634;DHT22;41504;53.162;6.788;2023-04-03T06:39:56;2.50;79.90
55634;DHT22;41504;53.162;6.788;2023-04-03T06:42:22;2.50;79.80
55634;DHT22;41504;53.162;6.788;2023-04-03T06:44:48;2.60;79.80
55634;DHT22;41504;53.162;6.788;2023-04-03T06:47:14;2.60;79.80
55634;DHT22;41504;53.162;6.788;2023-04-03T06:49:41;2.70;79.70
55634;DHT22;41504;53.162;6.788;2023-04-03T06:52:08;2.70;79.50
55634;DHT22;41504;53.162;6.788;2023-04-03T06:54:34;2.80;79.40
55634;DHT22;41504;53.162;6.788;2023-04-03T06:57:00;2.80;79.40
55634;DHT22;41504;53.162;6.788;2023-04-03T06:59:26;2.80;79.40
55634;DHT22;41504;53.162;6.788;2023-04-03T07:01:53;2.90;79.40
55634;DHT22;41504;53.162;6.788;2023-04-03T07:04:19;3.00;79.40
55634;DHT22;41504;53.162;6.788;2023-04-03T07:06:46;3.00;79.20
55634;DHT22;41504;53.162;6.788;2023-04-03T07:09:13;3.10;79.20
55634;DHT22;41504;53.162;6.788;2023-04-03T07:11:39;3.10;79.10
55634;DHT22;41504;53.162;6.788;2023-04-03T07:14:06;3.20;79.00
55634;DHT22;41504;53.162;6.788;2023-04-03T07:16:34;3.30;78.90
55634;DHT22;41504;53.162;6.788;2023-04-03T07:19:00;3.30;78.80
55634;DHT22;41504;53.162;6.788;2023-04-03T07:21:27;3.50;78.70
55634;DHT22;41504;53.162;6.788;2023-04-03T07:23:53;3.50;78.30
55634;DHT22;41504;53.162;6.788;2023-04-03T07:26:19;3.60;77.80
55634;DHT22;41504;53.162;6.788;2023-04-03T07:28:46;3.80;77.60
55634;DHT22;41504;53.162;6.788;2023-04-03T07:31:14;3.80;77.30
55634;DHT22;41504;53.162;6.788;2023-04-03T07:33:40;3.80;77.00
55634;DHT22;41504;53.162;6.788;2023-04-03T07:36:07;3.90;76.70
55634;DHT22;41504;53.162;6.788;2023-04-03T07:38:34;4.00;76.20
55634;DHT22;41504;53.162;6.788;2023-04-03T07:41:01;4.10;76.00
55634;DHT22;41504;53.162;6.788;2023-04-03T07:43:26;4.10;75.80
55634;DHT22;41504;53.162;6.788;2023-04-03T07:45:52;4.20;75.40
55634;DHT22;41504;53.162;6.788;2023-04-03T07:48:21;4.20;75.30
55634;DHT22;41504;53.162;6.788;2023-04-03T07:50:47;4.30;75.20
55634;DHT22;41504;53.162;6.788;2023-04-03T07:53:13;4.40;74.90
55634;DHT22;41504;53.162;6.788;2023-04-03T07:55:39;4.40;74.50
55634;DHT22;41504;53.162;6.788;2023-04-03T07:58:13;4.50;74.10
55634;DHT22;41504;53.162;6.788;2023-04-03T08:00:40;4.60;74.00
55634;DHT22;41504;53.162;6.788;2023-04-03T08:03:07;4.60;73.50
55634;DHT22;41504;53.162;6.788;2023-04-03T08:05:37;4.70;73.10
55634;DHT22;41504;53.162;6.788;2023-04-03T08:08:03;4.80;72.90
55634;DHT22;41504;53.162;6.788;2023-04-03T08:10:30;4.80;72.50
55634;DHT22;41504;53.162;6.788;2023-04-03T08:12:56;4.90;72.30
55634;DHT22;41504;53.162;6.788;2023-04-03T08:15:22;4.90;72.00
55634;DHT22;41504;53.162;6.788;2023-04-03T08:17:48;5.00;71.30
55634;DHT22;41504;53.162;6.788;2023-04-03T08:20:13;5.00;71.60
55634;DHT22;41504;53.162;6.788;2023-04-03T08:22:39;5.10;71.80
55634;DHT22;41504;53.162;6.788;2023-04-03T08:25:05;5.20;71.60
55634;DHT22;41504;53.162;6.788;2023-04-03T08:27:31;5.30;71.30
55634;DHT22;41504;53.162;6.788;2023-04-03T08:29:57;5.20;71.00
55634;DHT22;41504;53.162;6.788;2023-04-03T08:32:23;5.30;71.40
55634;DHT22;41504;53.162;6.788;2023-04-03T08:34:49;5.30;70.50
55634;DHT22;41504;53.162;6.788;2023-04-03T08:37:15;5.40;70.40
55634;DHT22;41504;53.162;6.788;2023-04-03T08:39:42;5.50;70.60
55634;DHT22;41504;53.162;6.788;2023-04-03T08:42:33;5.50;70.30
55634;DHT22;41504;53.162;6.788;2023-04-03T08:45:21;5.60;70.20
55634;DHT22;41504;53.162;6.788;2023-04-03T08:48:05;5.70;69.60
55634;DHT22;41504;53.162;6.788;2023-04-03T08:50:41;5.70;69.10
55634;DHT22;41504;53.162;6.788;2023-04-03T08:53:16;5.80;69.10
55634;DHT22;41504;53.162;6.788;2023-04-03T08:55:47;5.80;67.70
55634;DHT22;41504;53.162;6.788;2023-04-03T08:58:20;5.80;67.40
55634;DHT22;41504;53.162;6.788;2023-04-03T09:00:57;5.90;67.00
55634;DHT22;41504;53.162;6.788;2023-04-03T09:03:24;5.90;67.30
55634;DHT22;41504;53.162;6.788;2023-04-03T09:06:06;6.00;67.00
55634;DHT22;41504;53.162;6.788;2023-04-03T09:16:56;6.20;65.20
55634;DHT22;41504;53.162;6.788;2023-04-03T09:19:38;6.30;65.50
55634;DHT22;41504;53.162;6.788;2023-04-03T09:22:28;6.40;65.30
55634;DHT22;41504;53.162;6.788;2023-04-03T09:25:13;6.40;64.40
55634;DHT22;41504;53.162;6.788;2023-04-03T09:27:39;6.50;64.60
55634;DHT22;41504;53.162;6.788;2023-04-03T09:30:06;6.60;64.70
55634;DHT22;41504;53.162;6.788;2023-04-03T09:32:35;6.60;63.70
55634;DHT22;41504;53.162;6.788;2023-04-03T09:35:17;6.60;63.60
55634;DHT22;41504;53.162;6.788;2023-04-03T09:37:47;6.70;62.90
55634;DHT22;41504;53.162;6.788;2023-04-03T09:42:59;6.80;62.10
55634;DHT22;41504;53.162;6.788;2023-04-03T09:48:25;6.90;62.60
55634;DHT22;41504;53.162;6.788;2023-04-03T09:53:43;7.00;61.70
55634;DHT22;41504;53.162;6.788;2023-04-03T09:58:46;7.20;62.00
55634;DHT22;41504;53.162;6.788;2023-04-03T10:01:36;7.20;61.80
55634;DHT22;41504;53.162;6.788;2023-04-03T10:04:15;7.30;61.50
55634;DHT22;41504;53.162;6.788;2023-04-03T10:06:44;7.30;60.80
55634;DHT22;41504;53.162;6.788;2023-04-03T10:14:37;7.50;59.80
55634;DHT22;41504;53.162;6.788;2023-04-03T10:25:51;7.70;57.90
55634;DHT22;41504;53.162;6.788;2023-04-03T10:31:04;7.90;57.30
55634;DHT22;41504;53.162;6.788;2023-04-03T10:33:38;8.00;56.80
55634;DHT22;41504;53.162;6.788;2023-04-03T10:39:24;8.00;54.50
55634;DHT22;41504;53.162;6.788;2023-04-03T10:42:03;8.10;54.40
55634;DHT22;41504;53.162;6.788;2023-04-03T10:47:40;8.20;54.90
55634;DHT22;41504;53.162;6.788;2023-04-03T10:51:15;8.30;55.20
55634;DHT22;41504;53.162;6.788;2023-04-03T10:53:29;8.40;53.80
55634;DHT22;41504;53.162;6.788;2023-04-03T10:58:45;8.50;54.70
55634;DHT22;41504;53.162;6.788;2023-04-03T11:01:20;8.60;54.00
55634;DHT22;41504;53.162;6.788;2023-04-03T11:03:50;8.70;54.10
55634;DHT22;41504;53.162;6.788;2023-04-03T11:06:20;8.70;53.70
55634;DHT22;41504;53.162;6.788;2023-04-03T11:08:56;8.80;53.90
55634;DHT22;41504;53.162;6.788;2023-04-03T11:11:29;8.90;54.00
55634;DHT22;41504;53.162;6.788;2023-04-03T11:16:27;9.20;52.90
55634;DHT22;41504;53.162;6.788;2023-04-03T11:19:05;9.20;53.00
55634;DHT22;41504;53.162;6.788;2023-04-03T11:24:03;9.20;52.30
55634;DHT22;41504;53.162;6.788;2023-04-03T11:26:35;9.30;52.70
55634;DHT22;41504;53.162;6.788;2023-04-03T11:29:07;9.40;52.30
55634;DHT22;41504;53.162;6.788;2023-04-03T11:34:42;9.70;52.20
55634;DHT22;41504;53.162;6.788;2023-04-03T11:37:16;9.80;51.30
55634;DHT22;41504;53.162;6.788;2023-04-03T11:39:53;9.90;50.60
55634;DHT22;41504;53.162;6.788;2023-04-03T11:44:48;10.00;50.50
55634;DHT22;41504;53.162;6.788;2023-04-03T11:47:45;10.00;49.90
55634;DHT22;41504;53.162;6.788;2023-04-03T11:52:58;10.10;49.70
55634;DHT22;41504;53.162;6.788;2023-04-03T11:55:43;10.10;50.30
55634;DHT22;41504;53.162;6.788;2023-04-03T11:58:16;10.10;47.20
55634;DHT22;41504;53.162;6.788;2023-04-03T12:16:49;10.40;48.40
55634;DHT22;41504;53.162;6.788;2023-04-03T12:40:43;10.90;47.60
55634;DHT22;41504;53.162;6.788;2023-04-03T12:46:08;11.10;46.50
55634;DHT22;41504;53.162;6.788;2023-04-03T12:48:57;11.00;45.30
55634;DHT22;41504;53.162;6.788;2023-04-03T12:51:49;11.10;47.20
55634;DHT22;41504;53.162;6.788;2023-04-03T12:54:23;11.10;44.90
55634;DHT22;41504;53.162;6.788;2023-04-03T12:56:51;11.10;46.70
55634;DHT22;41504;53.162;6.788;2023-04-03T12:59:21;11.20;46.10
55634;DHT22;41504;53.162;6.788;2023-04-03T13:01:55;11.20;47.00
55634;DHT22;41504;53.162;6.788;2023-04-03T13:04:21;11.30;46.50
55634;DHT22;41504;53.162;6.788;2023-04-03T13:06:47;11.30;46.10
55634;DHT22;41504;53.162;6.788;2023-04-03T13:09:28;11.30;46.40
55634;DHT22;41504;53.162;6.788;2023-04-03T13:12:03;11.40;45.50
55634;DHT22;41504;53.162;6.788;2023-04-03T13:14:35;11.50;46.70
55634;DHT22;41504;53.162;6.788;2023-04-03T13:17:14;11.50;46.00
55634;DHT22;41504;53.162;6.788;2023-04-03T13:19:42;11.50;46.30
55634;DHT22;41504;53.162;6.788;2023-04-03T13:24:52;11.70;46.00
55634;DHT22;41504;53.162;6.788;2023-04-03T13:27:19;11.70;46.40
55634;DHT22;41504;53.162;6.788;2023-04-03T13:29:53;11.70;46.20
55634;DHT22;41504;53.162;6.788;2023-04-03T13:32:22;11.80;45.90
55634;DHT22;41504;53.162;6.788;2023-04-03T13:34:48;11.80;45.50
55634;DHT22;41504;53.162;6.788;2023-04-03T13:37:29;11.90;45.20
55634;DHT22;41504;53.162;6.788;2023-04-03T13:40:00;11.90;43.70
55634;DHT22;41504;53.162;6.788;2023-04-03T13:42:29;12.00;44.50
55634;DHT22;41504;53.162;6.788;2023-04-03T13:45:24;11.90;44.30
55634;DHT22;41504;53.162;6.788;2023-04-03T13:48:06;11.90;42.60
55634;DHT22;41504;53.162;6.788;2023-04-03T13:50:32;12.00;44.80
55634;DHT22;41504;53.162;6.788;2023-04-03T13:53:10;12.00;44.60
55634;DHT22;41504;53.162;6.788;2023-04-03T13:56:15;12.10;44.20
55634;DHT22;41504;53.162;6.788;2023-04-03T13:58:53;12.10;42.80
55634;DHT22;41504;53.162;6.788;2023-04-03T14:01:21;12.20;44.70
55634;DHT22;41504;53.162;6.788;2023-04-03T14:03:59;12.30;45.20
55634;DHT22;41504;53.162;6.788;2023-04-03T14:06:26;12.30;44.50
55634;DHT22;41504;53.162;6.788;2023-04-03T14:08:52;12.40;44.30
55634;DHT22;41504;53.162;6.788;2023-04-03T14:11:24;12.40;43.80
55634;DHT22;41504;53.162;6.788;2023-04-03T14:13:52;12.50;43.30
55634;DHT22;41504;53.162;6.788;2023-04-03T14:16:21;12.60;43.60
55634;DHT22;41504;53.162;6.788;2023-04-03T14:18:48;12.60;43.30
55634;DHT22;41504;53.162;6.788;2023-04-03T14:21:16;12.60;43.40
55634;DHT22;41504;53.162;6.788;2023-04-03T14:23:43;12.70;43.20
55634;DHT22;41504;53.162;6.788;2023-04-03T14:26:15;12.80;43.00
55634;DHT22;41504;53.162;6.788;2023-04-03T14:28:47;12.80;42.50
55634;DHT22;41504;53.162;6.788;2023-04-03T14:31:14;12.80;42.40
55634;DHT22;41504;53.162;6.788;2023-04-03T14:33:40;12.80;42.30
55634;DHT22;41504;53.162;6.788;2023-04-03T14:36:28;12.80;42.30
55634;DHT22;41504;53.162;6.788;2023-04-03T14:38:56;12.90;41.00
55634;DHT22;41504;53.162;6.788;2023-04-03T14:41:24;13.00;42.40
55634;DHT22;41504;53.162;6.788;2023-04-03T14:43:51;13.00;42.10
55634;DHT22;41504;53.162;6.788;2023-04-03T14:46:19;13.10;41.80
55634;DHT22;41504;53.162;6.788;2023-04-03T14:48:46;13.10;41.70
55634;DHT22;41504;53.162;6.788;2023-04-03T14:51:13;13.10;41.60
55634;DHT22;41504;53.162;6.788;2023-04-03T14:53:40;13.10;42.10
55634;DHT22;41504;53.162;6.788;2023-04-03T14:58:37;13.10;42.30
55634;DHT22;41504;53.162;6.788;2023-04-03T15:01:03;13.10;42.50
55634;DHT22;41504;53.162;6.788;2023-04-03T15:03:28;13.10;42.80
55634;DHT22;41504;53.162;6.788;2023-04-03T15:05:54;13.20;42.70
55634;DHT22;41504;53.162;6.788;2023-04-03T15:08:26;13.20;42.00
55634;DHT22;41504;53.162;6.788;2023-04-03T15:10:55;13.20;42.50
55634;DHT22;41504;53.162;6.788;2023-04-03T15:13:22;13.30;43.10
55634;DHT22;41504;53.162;6.788;2023-04-03T15:15:49;13.40;42.70
55634;DHT22;41504;53.162;6.788;2023-04-03T15:18:19;13.40;42.30
55634;DHT22;41504;53.162;6.788;2023-04-03T15:20:46;13.40;42.10
55634;DHT22;41504;53.162;6.788;2023-04-03T15:23:14;13.40;42.80
55634;DHT22;41504;53.162;6.788;2023-04-03T15:25:42;13.40;42.60
55634;DHT22;41504;53.162;6.788;2023-04-03T15:28:32;13.50;42.10
55634;DHT22;41504;53.162;6.788;2023-04-03T15:30:56;13.40;41.90
55634;DHT22;41504;53.162;6.788;2023-04-03T15:33:22;13.40;41.70
55634;DHT22;41504;53.162;6.788;2023-04-03T15:35:48;13.30;41.70
55634;DHT22;41504;53.162;6.788;2023-04-03T15:38:14;13.20;42.00
55634;DHT22;41504;53.162;6.788;2023-04-03T15:40:40;13.20;42.20
55634;DHT22;41504;53.162;6.788;2023-04-03T15:43:06;13.20;41.70
55634;DHT22;41504;53.162;6.788;2023-04-03T15:45:34;13.20;41.80
55634;DHT22;41504;53.162;6.788;2023-04-03T15:48:02;13.20;41.20
55634;DHT22;41504;53.162;6.788;2023-04-03T15:50:28;13.20;41.30
55634;DHT22;41504;53.162;6.788;2023-04-03T15:52:54;13.20;41.70
55634;DHT22;41504;53.162;6.788;2023-04-03T15:55:22;13.20;41.20
55634;DHT22;41504;53.162;6.788;2023-04-03T15:57:48;13.10;41.00
55634;DHT22;41504;53.162;6.788;2023-04-03T16:00:14;13.10;41.10
55634;DHT22;41504;53.162;6.788;2023-04-03T16:02:41;13.00;40.80
55634;DHT22;41504;53.162;6.788;2023-04-03T16:05:07;13.00;41.10
55634;DHT22;41504;53.162;6.788;2023-04-03T16:07:33;12.90;40.90
55634;DHT22;41504;53.162;6.788;2023-04-03T16:09:59;12.80;40.10
55634;DHT22;41504;53.162;6.788;2023-04-03T16:12:25;12.70;40.50
55634;DHT22;41504;53.162;6.788;2023-04-03T16:14:51;12.50;41.00
55634;DHT22;41504;53.162;6.788;2023-04-03T16:17:17;12.50;41.50
55634;DHT22;41504;53.162;6.788;2023-04-03T16:19:43;12.40;41.20
55634;DHT22;41504;53.162;6.788;2023-04-03T16:22:08;12.40;40.80
55634;DHT22;41504;53.162;6.788;2023-04-03T16:24:34;12.40;41.40
55634;DHT22;41504;53.162;6.788;2023-04-03T16:27:01;12.20;41.30
55634;DHT22;41504;53.162;6.788;2023-04-03T16:29:26;12.20;40.90
55634;DHT22;41504;53.162;6.788;2023-04-03T16:31:52;12.10;41.50
55634;DHT22;41504;53.162;6.788;2023-04-03T16:34:18;11.90;41.00
55634;DHT22;41504;53.162;6.788;2023-04-03T16:36:44;11.80;41.30
55634;DHT22;41504;53.162;6.788;2023-04-03T16:39:10;11.70;41.70
55634;DHT22;41504;53.162;6.788;2023-04-03T16:41:35;11.50;41.70
55634;DHT22;41504;53.162;6.788;2023-04-03T16:44:01;11.40;41.90
55634;DHT22;41504;53.162;6.788;2023-04-03T16:46:27;11.30;41.80
55634;DHT22;41504;53.162;6.788;2023-04-03T16:48:53;11.20;41.60
55634;DHT22;41504;53.162;6.788;2023-04-03T16:51:19;11.10;42.00
55634;DHT22;41504;53.162;6.788;2023-04-03T16:53:45;10.90;42.40
55634;DHT22;41504;53.162;6.788;2023-04-03T16:56:10;10.90;42.60
55634;DHT22;41504;53.162;6.788;2023-04-03T16:58:36;10.80;42.30
55634;DHT22;41504;53.162;6.788;2023-04-03T17:01:17;10.60;42.80
55634;DHT22;41504;53.162;6.788;2023-04-03T17:03:43;10.40;43.20
55634;DHT22;41504;53.162;6.788;2023-04-03T17:06:11;10.20;43.70
55634;DHT22;41504;53.162;6.788;2023-04-03T17:08:46;10.10;44.40
55634;DHT22;41504;53.162;6.788;2023-04-03T17:11:13;10.00;45.20
55634;DHT22;41504;53.162;6.788;2023-04-03T17:13:39;9.90;45.50
55634;DHT22;41504;53.162;6.788;2023-04-03T17:16:08;9.90;45.80
55634;DHT22;41504;53.162;6.788;2023-04-03T17:18:34;9.80;45.80
55634;DHT22;41504;53.162;6.788;2023-04-03T17:21:02;9.80;45.80
55634;DHT22;41504;53.162;6.788;2023-04-03T17:23:28;9.80;45.70
55634;DHT22;41504;53.162;6.788;2023-04-03T17:25:54;9.80;46.00
55634;DHT22;41504;53.162;6.788;2023-04-03T17:28:21;9.70;46.20
55634;DHT22;41504;53.162;6.788;2023-04-03T17:30:50;9.70;46.40
55634;DHT22;41504;53.162;6.788;2023-04-03T17:33:16;9.60;46.60
55634;DHT22;41504;53.162;6.788;2023-04-03T17:35:41;9.50;47.00
55634;DHT22;41504;53.162;6.788;2023-04-03T17:38:07;9.50;47.40
55634;DHT22;41504;53.162;6.788;2023-04-03T17:40:33;9.40;47.90
55634;DHT22;41504;53.162;6.788;2023-04-03T17:42:58;9.30;48.20
55634;DHT22;41504;53.162;6.788;2023-04-03T17:45:24;9.20;48.80
55634;DHT22;41504;53.162;6.788;2023-04-03T17:47:53;9.20;48.90
55634;DHT22;41504;53.162;6.788;2023-04-03T17:50:19;9.10;49.10